Time;durP1;ratioP1;P1;durP2;ratioP2;P2;SDS_P1;SDS_P2;PMS_P1;PMS_P2;Temp;Humidity;BMP_temperature;BMP_pressure;BME280_temperature;BME280_humidity;BME280_pressure;Samples;Min_cycle;Max_cycle;Signal;HPM_P1;HPM_P2
2023/08/09 00:01:34;;;;;;;3.10;2.20;;;359.20;2329.60;;;;;;4990932;28;20048;-62
2023/08/09 00:04:00;;;;;;;4.65;3.13;;;359.20;2329.60;;;;;;4990276;28;20034;-61
2023/08/09 00:06:26;;;;;;;4.50;3.10;;;359.20;2329.60;;;;;;4990862;28;20068;-61
2023/08/09 00:08:52;;;;;;;8.05;3.53;;;359.20;2329.60;;;;;;4990284;28;20046;-61
2023/08/09 00:11:17;;;;;;;7.13;3.10;;;359.10;2329.60;;;;;;4990472;28;20408;-62
2023/08/09 00:13:43;;;;;;;5.07;2.67;;;359.00;2329.60;;;;;;4990433;28;20088;-60
2023/08/09 00:16:09;;;;;;;4.28;3.05;;;359.00;2329.60;;;;;;4990357;28;20085;-60
2023/08/09 00:18:35;;;;;;;13.85;2.90;;;359.00;2329.60;;;;;;4990443;28;20113;-61
2023/08/09 00:21:01;;;;;;;4.22;2.63;;;359.00;2329.60;;;;;;4972654;28;20173;-61
2023/08/09 00:23:28;;;;;;;8.15;3.45;;;359.00;2329.60;;;;;;4990202;28;20038;-60
2023/08/09 00:25:55;;;;;;;4.18;2.95;;;359.00;2329.60;;;;;;4990543;28;20045;-62
2023/08/09 00:28:20;;;;;;;6.53;2.70;;;359.00;2329.60;;;;;;4990272;28;20380;-62
2023/08/09 00:30:46;;;;;;;6.70;3.15;;;359.00;2329.60;;;;;;4990237;28;20101;-61
2023/08/09 00:33:12;;;;;;;6.43;3.10;;;358.90;2329.60;;;;;;4989822;28;20041;-61
2023/08/09 00:35:39;;;;;;;4.03;2.22;;;358.90;2329.60;;;;;;4990511;28;20058;-63
2023/08/09 00:38:05;;;;;;;4.85;2.67;;;358.90;2329.60;;;;;;4990440;28;20131;-61
2023/08/09 00:40:31;;;;;;;6.03;2.63;;;358.90;2329.60;;;;;;4989803;28;20678;-61
2023/08/09 00:42:57;;;;;;;6.18;2.55;;;358.90;2329.60;;;;;;4989730;28;20038;-60
2023/08/09 00:45:22;;;;;;;7.75;2.80;;;358.90;2329.60;;;;;;4989609;28;20073;-62
2023/08/09 00:47:48;;;;;;;4.50;3.22;;;358.80;2329.60;;;;;;4989583;28;20030;-61
2023/08/09 00:50:14;;;;;;;6.10;3.60;;;358.80;2329.60;;;;;;4989990;28;20042;-61
2023/08/09 00:52:40;;;;;;;5.07;2.80;;;358.80;2329.60;;;;;;4989900;28;20021;-62
2023/08/09 00:55:06;;;;;;;3.78;2.78;;;358.80;2329.60;;;;;;4990148;28;20454;-60
2023/08/09 00:57:32;;;;;;;5.35;2.75;;;358.80;2329.60;;;;;;4971928;28;20031;-61
2023/08/09 00:59:58;;;;;;;3.90;2.72;;;358.80;2329.60;;;;;;4989842;28;20080;-60
2023/08/09 01:02:24;;;;;;;6.20;3.00;;;358.80;2329.60;;;;;;4989572;28;20402;-60
2023/08/09 01:04:50;;;;;;;4.57;2.55;;;358.80;2329.60;;;;;;4989862;28;20026;-62
2023/08/09 01:07:32;;;;;;;4.97;2.53;;;358.80;2329.60;;;;;;4989693;28;20019;-62
2023/08/09 01:10:13;;;;;;;4.68;2.67;;;358.80;2329.60;;;;;;4989617;28;20370;-61
2023/08/09 01:12:43;;;;;;;4.57;2.58;;;358.80;2329.60;;;;;;4989703;28;20046;-61
2023/08/09 01:15:12;;;;;;;5.10;2.70;;;358.80;2329.60;;;;;;4989460;28;20094;-62
2023/08/09 01:17:40;;;;;;;5.75;2.83;;;358.70;2329.60;;;;;;4989821;28;20031;-61
2023/08/09 01:20:11;;;;;;;4.05;2.58;;;358.70;2329.60;;;;;;4989697;28;20077;-61
2023/08/09 01:22:43;;;;;;;5.28;2.90;;;358.70;2329.60;;;;;;4989691;28;20035;-61
2023/08/09 01:25:09;;;;;;;9.77;3.58;;;358.80;2329.60;;;;;;4989430;28;20022;-62
2023/08/09 01:27:36;;;;;;;4.80;2.08;;;358.80;2329.60;;;;;;4989696;28;20488;-62
2023/08/09 01:30:08;;;;;;;7.30;2.72;;;358.80;2329.60;;;;;;4989394;28;20038;-61
2023/08/09 01:32:35;;;;;;;7.28;2.90;;;358.80;2329.60;;;;;;4989510;28;20026;-61
2023/08/09 01:35:01;;;;;;;6.20;2.88;;;358.70;2329.60;;;;;;4990515;28;20034;-63
2023/08/09 01:37:35;;;;;;;6.38;2.65;;;358.70;2329.60;;;;;;4993679;28;20346;-61
2023/08/09 01:40:08;;;;;;;5.78;2.72;;;358.70;2329.60;;;;;;4993113;28;20380;-62
2023/08/09 01:42:39;;;;;;;6.22;2.50;;;358.60;2329.60;;;;;;4993494;28;20049;-61
2023/08/09 01:45:06;;;;;;;7.53;2.60;;;358.60;2329.60;;;;;;4993104;28;20034;-61
2023/08/09 01:47:32;;;;;;;4.18;2.60;;;358.50;2329.60;;;;;;4993177;28;20037;-61
2023/08/09 01:49:59;;;;;;;4.55;2.10;;;358.50;2329.60;;;;;;4993428;28;20034;-61
2023/08/09 01:52:24;;;;;;;4.13;2.63;;;358.50;2329.60;;;;;;4993484;28;20034;-61
2023/08/09 01:54:50;;;;;;;4.28;2.55;;;358.50;2329.60;;;;;;4993262;28;20022;-61
2023/08/09 01:57:16;;;;;;;7.05;2.53;;;358.50;2329.60;;;;;;4993223;28;20026;-61
2023/08/09 01:59:43;;;;;;;4.60;3.05;;;358.50;2329.60;;;;;;4992857;28;20036;-61
2023/08/09 02:02:08;;;;;;;5.03;2.80;;;358.50;2329.60;;;;;;4992801;28;20018;-61
2023/08/09 02:04:34;;;;;;;4.85;3.05;;;358.40;2329.60;;;;;;4992879;28;20030;-62
2023/08/09 02:07:00;;;;;;;8.95;2.53;;;358.40;2329.60;;;;;;4992695;28;20022;-61
2023/08/09 02:09:26;;;;;;;5.68;2.90;;;358.50;2329.60;;;;;;4992772;28;20030;-61
2023/08/09 02:11:53;;;;;;;4.05;2.53;;;358.50;2329.60;;;;;;4992680;28;20089;-61
2023/08/09 02:14:19;;;;;;;4.93;2.45;;;358.40;2329.60;;;;;;4993057;28;20685;-63
2023/08/09 02:16:44;;;;;;;4.43;2.20;;;333.70;2329.60;;;;;;4992718;28;20461;-62
2023/08/09 02:19:10;;;;;;;4.65;2.47;;;358.40;2329.60;;;;;;4992622;28;20031;-62
2023/08/09 02:21:41;;;;;;;10.43;2.42;;;358.40;2329.60;;;;;;4992526;28;20018;-62
2023/08/09 02:24:08;;;;;;;10.85;2.85;;;333.70;2329.60;;;;;;4980692;28;20030;-62
2023/08/09 02:26:34;;;;;;;4.95;2.63;;;333.70;2329.60;;;;;;4992767;28;20069;-61
2023/08/09 02:29:00;;;;;;;4.68;3.00;;;333.70;2329.60;;;;;;4992329;28;20034;-61
2023/08/09 02:31:27;;;;;;;7.22;3.33;;;333.70;2329.60;;;;;;4992485;28;20080;-61
2023/08/09 02:33:53;;;;;;;5.15;2.92;;;333.70;2329.60;;;;;;4992174;28;20065;-61
2023/08/09 02:36:18;;;;;;;3.40;2.30;;;333.70;2329.60;;;;;;4992351;28;20054;-60
2023/08/09 02:38:44;;;;;;;5.53;2.38;;;333.70;2329.60;;;;;;4992139;28;20034;-60
2023/08/09 02:41:10;;;;;;;4.60;2.83;;;333.70;2329.60;;;;;;4992054;28;20030;-63
2023/08/09 02:43:36;;;;;;;5.57;2.75;;;333.70;2329.60;;;;;;4992285;28;20088;-60
2023/08/09 02:46:04;;;;;;;7.55;2.88;;;333.70;2329.60;;;;;;4992247;28;20069;-61
2023/08/09 02:48:30;;;;;;;6.80;2.72;;;333.70;2329.60;;;;;;4991777;28;20521;-61
2023/08/09 02:50:55;;;;;;;4.80;2.50;;;333.70;2329.60;;;;;;4991973;28;20037;-61
2023/08/09 02:53:26;;;;;;;6.60;3.22;;;333.60;2329.60;;;;;;4992073;28;20042;-60
2023/08/09 02:55:52;;;;;;;3.88;2.55;;;333.60;2329.60;;;;;;4991793;28;20088;-60
2023/08/09 02:58:19;;;;;;;6.30;3.00;;;333.60;2329.60;;;;;;4992164;28;20038;-62
2023/08/09 03:00:45;;;;;;;6.10;2.65;;;333.60;2329.60;;;;;;4992082;28;20034;-60
2023/08/09 03:03:10;;;;;;;3.70;2.63;;;333.50;2329.60;;;;;;4991593;28;20031;-61
2023/08/09 03:05:36;;;;;;;6.25;3.15;;;333.60;2329.60;;;;;;4991684;28;20022;-63
2023/08/09 03:08:02;;;;;;;4.57;2.80;;;333.60;2329.60;;;;;;4992041;28;20026;-62
2023/08/09 03:10:29;;;;;;;6.60;2.97;;;333.60;2329.60;;;;;;4991219;28;20051;-60
2023/08/09 03:12:55;;;;;;;4.28;3.03;;;333.60;2329.60;;;;;;4991898;28;20038;-60
2023/08/09 03:15:22;;;;;;;8.13;2.80;;;333.60;2329.60;;;;;;4991414;28;20547;-61
2023/08/09 03:17:48;;;;;;;5.15;2.78;;;333.50;2329.60;;;;;;4991573;28;20101;-61
2023/08/09 03:20:14;;;;;;;5.05;3.30;;;333.50;2329.60;;;;;;4991486;28;20073;-65
2023/08/09 03:22:43;;;;;;;3.88;2.58;;;333.50;2329.60;;;;;;4991310;28;20065;-65
2023/08/09 03:25:10;;;;;;;6.38;3.08;;;333.50;2329.60;;;;;;4991178;28;20417;-61
2023/08/09 03:27:37;;;;;;;6.03;2.97;;;333.50;2329.60;;;;;;4991896;28;20030;-61
2023/08/09 03:30:07;;;;;;;8.50;2.72;;;333.50;2329.60;;;;;;4991126;28;20039;-61
2023/08/09 03:32:32;;;;;;;5.07;2.50;;;333.40;2329.60;;;;;;4991163;28;20038;-61
2023/08/09 03:34:58;;;;;;;5.60;2.38;;;333.40;2329.60;;;;;;4990896;28;20022;-61
2023/08/09 03:37:24;;;;;;;6.22;2.80;;;333.40;2329.60;;;;;;4991311;28;20088;-61
2023/08/09 03:39:50;;;;;;;4.70;2.65;;;333.40;2329.60;;;;;;4990968;28;20485;-62
2023/08/09 03:42:16;;;;;;;6.38;2.55;;;333.40;2329.60;;;;;;4991294;28;20038;-60
2023/08/09 03:44:41;;;;;;;4.75;2.72;;;333.50;2329.60;;;;;;4991055;28;20041;-60
2023/08/09 03:47:07;;;;;;;4.22;2.38;;;333.50;2329.60;;;;;;4990956;28;20093;-62
2023/08/09 03:49:33;;;;;;;3.83;2.60;;;333.60;2329.60;;;;;;4990848;28;20042;-61
2023/08/09 03:51:59;;;;;;;7.25;3.80;;;333.50;2329.60;;;;;;4990984;28;20019;-60
2023/08/09 03:54:25;;;;;;;4.95;2.70;;;333.50;2329.60;;;;;;4973124;28;20030;-60
2023/08/09 03:56:51;;;;;;;4.35;2.63;;;333.50;2329.60;;;;;;4990885;28;20018;-60
2023/08/09 03:59:17;;;;;;;4.47;2.25;;;333.50;2329.60;;;;;;4990770;28;20026;-59
2023/08/09 04:01:42;;;;;;;3.92;2.25;;;333.60;2329.60;;;;;;4990732;28;20069;-60
2023/08/09 04:04:08;;;;;;;4.20;2.28;;;333.60;2329.60;;;;;;4990303;28;20365;-61
2023/08/09 04:06:34;;;;;;;4.18;2.92;;;333.70;2329.60;;;;;;4990899;28;20022;-61
2023/08/09 04:09:00;;;;;;;5.90;2.70;;;333.70;2329.60;;;;;;4990381;28;20030;-65
2023/08/09 04:11:25;;;;;;;6.03;2.70;;;333.70;2329.60;;;;;;4990486;28;20500;-61
2023/08/09 04:13:51;;;;;;;5.82;2.58;;;333.70;2329.60;;;;;;4990427;28;20054;-60
2023/08/09 04:16:18;;;;;;;5.57;2.80;;;358.40;2329.60;;;;;;4990884;28;20029;-61
2023/08/09 04:18:43;;;;;;;4.22;2.13;;;358.40;2329.60;;;;;;4990285;28;20030;-60
2023/08/09 04:21:09;;;;;;;3.80;2.20;;;358.50;2329.60;;;;;;4983478;28;20088;-66
2023/08/09 04:23:35;;;;;;;4.25;2.63;;;358.50;2329.60;;;;;;4989519;28;20149;-61
2023/08/09 04:26:03;;;;;;;3.13;2.42;;;358.60;2329.60;;;;;;4980606;28;20107;-63
2023/08/09 04:28:29;;;;;;;5.75;2.50;;;358.60;2329.60;;;;;;4990063;28;20033;-61
2023/08/09 04:30:54;;;;;;;5.00;2.35;;;358.70;2329.60;;;;;;4972600;28;20038;-61
2023/08/09 04:33:20;;;;;;;6.53;2.78;;;358.80;2329.60;;;;;;4989795;28;20022;-61
2023/08/09 04:35:46;;;;;;;4.90;2.97;;;358.80;2329.60;;;;;;4990396;28;20022;-63
2023/08/09 04:38:11;;;;;;;5.32;2.58;;;358.90;2329.60;;;;;;4990102;28;20492;-61
2023/08/09 04:40:37;;;;;;;6.25;3.08;;;359.00;2329.60;;;;;;4990294;28;20030;-61
2023/08/09 04:43:04;;;;;;;4.30;2.85;;;359.00;2329.60;;;;;;4989903;28;20385;-62
2023/08/09 04:45:30;;;;;;;5.95;3.15;;;359.10;2329.60;;;;;;4989942;28;20116;-62
2023/08/09 04:47:57;;;;;;;5.25;3.28;;;359.20;2329.60;;;;;;4989825;28;20034;-61
2023/08/09 04:50:23;;;;;;;8.05;2.72;;;359.30;2329.60;;;;;;4989344;28;20066;-61
2023/08/09 04:52:50;;;;;;;3.90;2.70;;;384.00;2329.60;;;;;;4989759;28;20022;-64
2023/08/09 04:55:16;;;;;;;6.88;3.20;;;384.10;2329.60;;;;;;4989997;28;20574;-61
2023/08/09 04:57:42;;;;;;;4.68;2.60;;;384.30;2329.60;;;;;;4989986;28;20023;-64
2023/08/09 05:00:12;;;;;;;7.53;3.42;;;410.30;2355.20;;;;;;4990255;28;20025;-66
2023/08/09 05:02:38;;;;;;;10.32;3.78;;;538.20;2406.40;;;;;;4977977;28;20031;-68
2023/08/09 05:05:04;;;;;;;8.55;3.97;;;640.40;2201.60;;;;;;4973992;28;20548;-62
2023/08/09 05:07:30;;;;;;;8.35;3.85;;;665.90;1971.20;;;;;;4988502;28;20110;-62
2023/08/09 05:09:56;;;;;;;4.93;3.35;;;716.80;1843.20;;;;;;4989037;28;20121;-62
2023/08/09 05:12:21;;;;;;;4.68;3.10;;;743.10;1689.60;;;;;;4989326;28;20042;-62
2023/08/09 05:14:47;;;;;;;4.45;2.83;;;793.60;1587.20;;;;;;4989950;28;20034;-62
2023/08/09 05:17:13;;;;;;;7.05;2.80;;;819.30;1510.40;;;;;;4989646;28;20015;-62
2023/08/09 05:19:38;;;;;;;5.57;3.05;;;820.10;1459.20;;;;;;4989693;28;20030;-62
2023/08/09 05:22:04;;;;;;;4.75;2.50;;;845.60;1408.00;;;;;;4989516;28;20054;-62
2023/08/09 05:24:30;;;;;;;7.35;4.35;;;870.60;1382.40;;;;;;4982229;28;20031;-62
2023/08/09 05:26:55;;;;;;;5.50;2.47;;;871.10;1356.80;;;;;;4987175;28;20058;-64
2023/08/09 05:29:21;;;;;;;5.40;3.10;;;896.30;1331.20;;;;;;4989376;28;20061;-63
2023/08/09 05:31:47;;;;;;;10.65;3.42;;;845.70;1408.00;;;;;;4989612;28;20026;-62
2023/08/09 05:34:12;;;;;;;3.45;2.70;;;845.00;1433.60;;;;;;4989534;28;20027;-62
2023/08/09 05:36:38;;;;;;;5.97;3.28;;;845.00;1433.60;;;;;;4989868;28;20098;-63
2023/08/09 05:39:04;;;;;;;7.07;3.35;;;845.40;1382.40;;;;;;4988575;28;20043;-62
2023/08/09 05:41:29;;;;;;;5.03;4.30;;;870.80;1331.20;;;;;;4989122;28;20069;-63
2023/08/09 05:43:55;;;;;;;8.65;5.38;;;871.10;1331.20;;;;;;4989974;28;20096;-63
2023/08/09 05:46:21;;;;;;;5.88;4.28;;;921.80;1280.00;;;;;;4989061;28;20014;-63
2023/08/09 05:48:46;;;;;;;5.35;3.58;;;947.50;1228.80;;;;;;4989497;28;20041;-63
2023/08/09 05:51:12;;;;;;;5.55;4.18;;;972.90;1228.80;;;;;;4989553;28;20435;-63
2023/08/09 05:53:39;;;;;;;4.35;3.85;;;973.60;1177.60;;;;;;4989474;28;20030;-64
2023/08/09 05:56:06;;;;;;;4.78;4.28;;;998.80;1177.60;;;;;;4989437;28;20026;-63
2023/08/09 05:58:31;;;;;;;7.60;3.85;;;998.90;1177.60;;;;;;4971987;28;20040;-64
2023/08/09 06:00:57;;;;;;;6.00;4.47;;;1024.50;1126.40;;;;;;4989396;28;20022;-63
2023/08/09 06:03:23;;;;;;;6.32;5.30;;;1049.80;1100.80;;;;;;4989050;28;20026;-65
2023/08/09 06:05:48;;;;;;;8.48;4.68;;;1050.50;1100.80;;;;;;4989229;28;20058;-64
2023/08/09 06:08:14;;;;;;;6.05;4.78;;;1075.80;1075.20;;;;;;4989359;28;20026;-64
2023/08/09 06:10:40;;;;;;;6.03;5.50;;;1100.80;1075.20;;;;;;4988796;28;20050;-66
2023/08/09 06:13:05;;;;;;;5.47;5.00;;;1101.10;1049.60;;;;;;4989631;28;20066;-64
2023/08/09 06:15:31;;;;;;;5.50;4.97;;;1101.20;1049.60;;;;;;4989163;28;20023;-65
2023/08/09 06:17:57;;;;;;;6.03;4.57;;;1101.20;1049.60;;;;;;4989118;28;20113;-65
2023/08/09 06:20:23;;;;;;;5.97;4.68;;;1101.10;1049.60;;;;;;4989057;28;20022;-64
2023/08/09 06:22:50;;;;;;;12.57;6.60;;;1126.60;1049.60;;;;;;4992863;28;20030;-63
2023/08/09 06:25:16;;;;;;;6.70;6.10;;;1101.50;1024.00;;;;;;4992499;28;20484;-64
2023/08/09 06:27:42;;;;;;;6.40;5.90;;;1126.50;1049.60;;;;;;4992578;28;20038;-65
2023/08/09 06:30:08;;;;;;;6.68;6.10;;;1101.60;1024.00;;;;;;4992611;28;20031;-65
2023/08/09 06:32:34;;;;;;;7.65;6.95;;;1126.80;1049.60;;;;;;4992268;28;20018;-65
2023/08/09 06:34:59;;;;;;;9.70;6.60;;;1152.00;998.40;;;;;;4992306;28;20114;-66
2023/08/09 06:37:25;;;;;;;8.10;7.32;;;1152.40;998.40;;;;;;4992883;28;20027;-64
2023/08/09 06:39:51;;;;;;;8.20;7.50;;;1152.60;998.40;;;;;;4992131;28;20107;-66
2023/08/09 06:42:16;;;;;;;7.95;7.25;;;1152.70;972.80;;;;;;4992411;28;20030;-65
2023/08/09 06:44:42;;;;;;;11.30;9.77;;;1178.00;947.20;;;;;;4992302;28;20026;-65
2023/08/09 06:47:10;;;;;;;9.07;8.27;;;1126.50;1024.00;;;;;;4990929;28;20388;-66
2023/08/09 06:49:35;;;;;;;11.10;8.40;;;1152.10;972.80;;;;;;4992463;28;20045;-65
2023/08/09 06:52:01;;;;;;;7.85;7.22;;;1152.50;972.80;;;;;;4992162;28;20018;-66
2023/08/09 06:54:28;;;;;;;8.93;8.13;;;1152.70;947.20;;;;;;4992031;28;20121;-65
2023/08/09 06:56:54;;;;;;;10.40;7.63;;;1152.90;947.20;;;;;;4973884;28;20523;-65
2023/08/09 06:59:19;;;;;;;7.15;6.63;;;1177.80;947.20;;;;;;4991951;28;20372;-66
2023/08/09 07:01:48;;;;;;;8.43;7.72;;;1178.10;947.20;;;;;;4992026;28;20018;-66
2023/08/09 07:04:15;;;;;;;8.23;7.53;;;1177.80;921.60;;;;;;4992038;28;20081;-66
2023/08/09 07:06:41;;;;;;;8.27;7.55;;;1177.80;896.00;;;;;;4992019;28;20416;-66
2023/08/09 07:09:06;;;;;;;8.77;7.97;;;1178.30;896.00;;;;;;4992031;28;20039;-66
2023/08/09 07:11:32;;;;;;;9.65;8.73;;;1152.00;947.20;;;;;;4991740;28;20054;-66
2023/08/09 07:13:59;;;;;;;8.57;7.88;;;1152.50;921.60;;;;;;4991802;28;20035;-66
2023/08/09 07:16:25;;;;;;;8.60;7.90;;;1152.70;896.00;;;;;;4991840;28;20046;-65
2023/08/09 07:18:52;;;;;;;9.57;8.65;;;1178.10;896.00;;;;;;4991622;28;20072;-65
2023/08/09 07:21:18;;;;;;;10.98;8.32;;;1152.40;947.20;;;;;;4991547;28;20105;-65
2023/08/09 07:23:43;;;;;;;8.73;7.93;;;1152.10;947.20;;;;;;4991312;28;20113;-66
2023/08/09 07:26:09;;;;;;;9.05;8.23;;;1126.60;972.80;;;;;;4991404;28;20030;-67
2023/08/09 07:28:35;;;;;;;9.05;8.25;;;1152.00;947.20;;;;;;4991455;28;20055;-65
2023/08/09 07:31:00;;;;;;;9.55;8.70;;;1152.90;921.60;;;;;;4991557;28;20037;-65
2023/08/09 07:33:26;;;;;;;9.23;8.30;;;1178.30;896.00;;;;;;4990673;28;20026;-65
2023/08/09 07:35:52;;;;;;;9.57;8.77;;;1178.50;896.00;;;;;;4991596;28;20036;-66
2023/08/09 07:38:18;;;;;;;9.00;7.10;;;1177.60;896.00;;;;;;4991592;28;20029;-64
2023/08/09 07:40:43;;;;;;;9.25;8.13;;;1127.30;921.60;;;;;;4991172;28;20057;-65
2023/08/09 07:43:09;;;;;;;13.70;9.75;;;1178.00;870.40;;;;;;4973818;28;20031;-64
2023/08/09 07:45:35;;;;;;;11.00;9.82;;;1152.00;921.60;;;;;;4991624;28;20037;-63
2023/08/09 07:48:01;;;;;;;10.48;8.95;;;1177.60;896.00;;;;;;4990725;28;20011;-64
2023/08/09 07:50:27;;;;;;;11.32;9.02;;;1152.40;921.60;;;;;;4991590;28;20065;-64
2023/08/09 07:52:53;;;;;;;14.00;12.65;;;1178.30;896.00;;;;;;4990809;28;20026;-64
2023/08/09 07:55:19;;;;;;;9.48;8.70;;;1152.50;896.00;;;;;;4991078;28;20026;-63
2023/08/09 07:57:45;;;;;;;8.85;8.05;;;1101.60;947.20;;;;;;4990926;28;20029;-63
2023/08/09 08:00:17;;;;;;;8.48;7.68;;;1101.60;947.20;;;;;;4990822;28;20029;-64
2023/08/09 08:02:43;;;;;;;;;;;1101.00;972.80;;;;;;4991147;28;20026;-64
2023/08/09 08:05:11;;;;;;;9.32;8.13;;;1101.70;947.20;;;;;;4990718;28;19910;-64
2023/08/09 08:07:41;;;;;;;8.65;7.72;;;1126.80;972.80;;;;;;4991082;28;20022;-64
2023/08/09 08:10:14;;;;;;;9.93;8.25;;;1152.00;921.60;;;;;;4990504;28;20078;-65
2023/08/09 08:12:40;;;;;;;9.32;8.40;;;1152.70;921.60;;;;;;4990535;28;20037;-64
2023/08/09 08:15:07;;;;;;;7.70;7.18;;;1126.80;947.20;;;;;;4990811;28;20034;-64
2023/08/09 08:17:33;;;;;;;9.20;6.85;;;1152.20;921.60;;;;;;4990241;28;20109;-63
2023/08/09 08:19:59;;;;;;;8.35;7.60;;;1127.00;947.20;;;;;;4990360;28;20037;-66
2023/08/09 08:22:25;;;;;;;8.50;7.68;;;1101.70;947.20;;;;;;4990418;28;20030;-64
2023/08/09 08:24:51;;;;;;;7.97;7.18;;;1101.30;972.80;;;;;;4990049;28;20030;-66
2023/08/09 08:27:17;;;;;;;8.20;7.50;;;1100.80;972.80;;;;;;4990473;28;20026;-65
2023/08/09 08:29:43;;;;;;;8.18;6.95;;;1075.80;972.80;;;;;;4990093;28;20049;-64
2023/08/09 08:32:10;;;;;;;7.18;6.55;;;1050.10;998.40;;;;;;4990218;28;20030;-62
2023/08/09 08:34:37;;;;;;;6.93;6.28;;;1049.80;998.40;;;;;;4990481;28;20105;-64
2023/08/09 08:37:04;;;;;;;5.95;5.45;;;998.40;1024.00;;;;;;4977459;28;20010;-64
2023/08/09 08:39:31;;;;;;;4.90;4.25;;;921.70;1126.40;;;;;;4989779;28;20161;-63
2023/08/09 08:41:57;;;;;;;5.35;4.05;;;871.10;1152.00;;;;;;4990202;28;20042;-62
2023/08/09 08:44:24;;;;;;;6.22;3.60;;;844.90;1228.80;;;;;;4989742;28;20022;-63
2023/08/09 08:46:52;;;;;;;6.18;4.20;;;819.30;1228.80;;;;;;4989730;28;20022;-63
2023/08/09 08:49:23;;;;;;;4.68;3.45;;;794.50;1305.60;;;;;;4989937;28;20500;-62
2023/08/09 08:51:52;;;;;;;8.38;3.90;;;793.70;1305.60;;;;;;4990106;28;20034;-62
2023/08/09 08:54:19;;;;;;;4.18;2.90;;;768.70;1305.60;;;;;;4989731;28;20041;-63
2023/08/09 08:56:45;;;;;;;7.32;4.20;;;743.30;1356.80;;;;;;4989960;28;20037;-62
2023/08/09 08:59:11;;;;;;;5.88;3.28;;;743.10;1356.80;;;;;;4989954;28;20109;-63
2023/08/09 09:01:37;;;;;;;3.38;2.88;;;742.80;1382.40;;;;;;4989739;28;20134;-63
2023/08/09 09:04:03;;;;;;;4.40;3.38;;;742.50;1382.40;;;;;;4989501;28;20039;-63
2023/08/09 09:06:29;;;;;;;4.88;3.22;;;742.60;1331.20;;;;;;4989787;28;20022;-64
2023/08/09 09:08:56;;;;;;;8.13;3.55;;;742.50;1382.40;;;;;;4989447;28;20038;-63
2023/08/09 09:11:22;;;;;;;8.38;3.47;;;717.30;1356.80;;;;;;4989477;28;20092;-62
2023/08/09 09:13:50;;;;;;;5.15;3.15;;;717.70;1356.80;;;;;;4990009;28;21396;-62
2023/08/09 09:16:17;;;;;;;5.22;3.17;;;717.30;1356.80;;;;;;4989854;28;20022;-62
2023/08/09 09:18:48;;;;;;;5.57;3.08;;;717.50;1356.80;;;;;;4989254;28;20156;-63
2023/08/09 09:21:16;;;;;;;3.67;2.65;;;717.20;1382.40;;;;;;4989447;28;20031;-62
2023/08/09 09:23:42;;;;;;;8.02;3.35;;;717.60;1408.00;;;;;;4989195;28;20029;-63
2023/08/09 09:26:16;;;;;;;5.68;3.42;;;717.10;1408.00;;;;;;4989887;28;20431;-63
2023/08/09 09:28:42;;;;;;;8.75;3.85;;;716.80;1459.20;;;;;;4989472;28;20033;-63
2023/08/09 09:31:10;;;;;;;5.13;3.95;;;717.10;1484.80;;;;;;4989920;28;20022;-62
2023/08/09 09:33:37;;;;;;;6.95;3.20;;;717.10;1459.20;;;;;;4972014;28;20477;-63
2023/08/09 09:36:03;;;;;;;8.20;3.70;;;716.90;1459.20;;;;;;4989710;28;20381;-62
2023/08/09 09:38:29;;;;;;;4.78;3.28;;;691.80;1459.20;;;;;;4988651;28;20152;-62
2023/08/09 09:40:56;;;;;;;7.13;3.42;;;691.90;1459.20;;;;;;4988839;28;20030;-62
2023/08/09 09:43:23;;;;;;;4.45;3.35;;;692.00;1484.80;;;;;;4988496;28;20027;-62
2023/08/09 09:45:54;;;;;;;4.22;3.03;;;692.10;1459.20;;;;;;4989009;28;20462;-62
2023/08/09 09:48:20;;;;;;;5.72;3.35;;;716.80;1484.80;;;;;;4975741;28;20023;-63
2023/08/09 09:50:49;;;;;;;4.28;3.22;;;691.90;1459.20;;;;;;4988898;28;20023;-63
2023/08/09 09:53:16;;;;;;;7.00;2.85;;;692.10;1433.60;;;;;;4989033;28;20077;-62
2023/08/09 09:55:42;;;;;;;6.78;3.50;;;691.70;1459.20;;;;;;4989502;28;20030;-62
2023/08/09 09:58:08;;;;;;;5.68;2.72;;;691.70;1484.80;;;;;;4992939;28;20105;-62
2023/08/09 10:00:36;;;;;;;3.90;3.03;;;692.00;1459.20;;;;;;4992429;28;20113;-63
2023/08/09 10:03:04;;;;;;;4.80;3.03;;;691.90;1433.60;;;;;;4992411;28;20057;-63
2023/08/09 10:05:35;;;;;;;9.13;3.30;;;691.80;1433.60;;;;;;4992420;28;20133;-62
2023/08/09 10:08:07;;;;;;;5.13;2.95;;;691.80;1484.80;;;;;;4992489;28;20173;-62
2023/08/09 10:10:34;;;;;;;4.60;2.95;;;691.40;1484.80;;;;;;4991846;28;20100;-62
2023/08/09 10:13:03;;;;;;;4.22;2.83;;;691.60;1484.80;;;;;;4992520;28;20033;-64
2023/08/09 10:15:34;;;;;;;3.60;2.67;;;691.60;1484.80;;;;;;4992312;28;20053;-62
2023/08/09 10:18:10;;;;;;;4.90;3.20;;;691.70;1459.20;;;;;;4992257;28;20384;-63
2023/08/09 10:20:44;;;;;;;4.30;2.83;;;691.60;1459.20;;;;;;4992942;28;20117;-63
2023/08/09 10:23:21;;;;;;;4.28;2.83;;;691.70;1484.80;;;;;;4992160;28;20019;-67
2023/08/09 10:25:48;;;;;;;3.67;2.72;;;692.10;1561.60;;;;;;4981083;28;20026;-64
2023/08/09 10:28:14;;;;;;;5.45;2.85;;;716.90;1484.80;;;;;;4991904;28;20040;-63
2023/08/09 10:30:58;;;;;;;5.25;3.03;;;716.80;1510.40;;;;;;4992088;28;20026;-63
2023/08/09 10:33:24;;;;;;;5.80;3.20;;;691.90;1459.20;;;;;;4991978;28;20022;-62
2023/08/09 10:35:52;;;;;;;4.45;3.13;;;716.80;1484.80;;;;;;4992023;28;20127;-63
2023/08/09 10:38:41;;;;;;;4.63;2.80;;;691.60;1459.20;;;;;;4992096;28;20105;-63
2023/08/09 10:41:11;;;;;;;3.85;2.58;;;692.10;1484.80;;;;;;4912988;29;20142;-63
2023/08/09 10:43:37;;;;;;;4.28;3.08;;;691.80;1433.60;;;;;;4913008;29;20494;-63
2023/08/09 10:46:20;;;;;;;5.15;3.00;;;691.90;1459.20;;;;;;4912993;29;20045;-62
2023/08/09 10:48:59;;;;;;;5.50;3.08;;;692.00;1459.20;;;;;;4912964;29;20115;-65
2023/08/09 10:51:25;;;;;;;4.72;3.08;;;717.00;1484.80;;;;;;4913120;29;20032;-64
2023/08/09 10:53:58;;;;;;;4.30;2.60;;;716.90;1459.20;;;;;;4913161;29;20072;-63
2023/08/09 10:56:34;;;;;;;4.53;2.50;;;691.90;1433.60;;;;;;4912811;29;20132;-63
2023/08/09 10:59:27;;;;;;;3.53;2.55;;;692.00;1408.00;;;;;;4912883;29;20036;-64
2023/08/09 11:01:54;;;;;;;4.05;2.75;;;717.00;1484.80;;;;;;4875167;29;20442;-64
2023/08/09 11:04:20;;;;;;;5.22;2.47;;;717.10;1433.60;;;;;;4875060;29;20072;-64
2023/08/09 11:06:50;;;;;;;6.38;3.00;;;717.00;1433.60;;;;;;4874648;29;20078;-64
2023/08/09 11:09:18;;;;;;;4.95;3.13;;;717.20;1459.20;;;;;;4874847;29;20527;-64
2023/08/09 11:11:46;;;;;;;6.15;3.05;;;717.10;1484.80;;;;;;4875065;29;20135;-62
2023/08/09 11:14:14;;;;;;;4.65;2.75;;;692.00;1459.20;;;;;;4875093;29;20078;-64
2023/08/09 11:16:40;;;;;;;3.92;2.60;;;691.60;1484.80;;;;;;4875057;29;20049;-63
2023/08/09 11:19:09;;;;;;;3.88;2.95;;;691.80;1510.40;;;;;;4915246;29;20067;-65
2023/08/09 11:21:43;;;;;;;4.13;3.00;;;691.60;1484.80;;;;;;4931613;29;20859;-62
2023/08/09 11:24:10;;;;;;;3.58;2.58;;;691.40;1484.80;;;;;;4919984;29;20093;-62
2023/08/09 11:26:38;;;;;;;3.63;2.67;;;691.40;1484.80;;;;;;4931404;29;20486;-64
2023/08/09 11:29:05;;;;;;;6.57;3.58;;;691.70;1561.60;;;;;;4931120;29;20067;-65
2023/08/09 11:31:45;;;;;;;6.28;3.63;;;691.40;1536.00;;;;;;4931156;29;20462;-62
2023/08/09 11:34:12;;;;;;;3.30;2.72;;;691.30;1510.40;;;;;;4931127;29;20047;-63
2023/08/09 11:36:40;;;;;;;6.00;3.00;;;691.40;1536.00;;;;;;4931293;29;20028;-64
2023/08/09 11:39:08;;;;;;;3.47;2.70;;;691.20;1510.40;;;;;;4968767;28;20037;-64
2023/08/09 11:41:55;;;;;;;4.40;2.75;;;691.60;1484.80;;;;;;4991130;28;20026;-64
2023/08/09 11:44:43;;;;;;;4.90;3.35;;;691.80;1510.40;;;;;;4990817;28;20153;-66
2023/08/09 11:47:09;;;;;;;5.20;3.08;;;691.70;1510.40;;;;;;4991321;28;20434;-62
2023/08/09 11:49:35;;;;;;;4.78;3.30;;;691.40;1510.40;;;;;;4990930;28;20038;-62
2023/08/09 11:52:02;;;;;;;7.05;3.58;;;691.80;1587.20;;;;;;4991037;28;20023;-65
2023/08/09 11:54:28;;;;;;;5.50;3.53;;;691.80;1612.80;;;;;;4991016;28;20121;-63
2023/08/09 11:56:55;;;;;;;4.35;3.17;;;691.80;1536.00;;;;;;4991013;28;20075;-63
2023/08/09 11:59:24;;;;;;;7.43;3.78;;;691.90;1561.60;;;;;;4990728;28;20093;-61
2023/08/09 12:01:53;;;;;;;5.85;3.33;;;691.60;1561.60;;;;;;4990871;28;20430;-64
2023/08/09 12:04:23;;;;;;;5.65;3.58;;;691.60;1587.20;;;;;;4990476;28;20026;-64
2023/08/09 12:06:54;;;;;;;4.30;3.22;;;691.40;1587.20;;;;;;4990986;28;20026;-62
2023/08/09 12:09:39;;;;;;;6.53;3.38;;;691.40;1587.20;;;;;;4990314;28;20062;-65
2023/08/09 12:12:12;;;;;;;5.72;3.40;;;691.30;1561.60;;;;;;4990642;28;20505;-62
2023/08/09 12:14:44;;;;;;;5.28;3.63;;;691.40;1561.60;;;;;;4990612;28;20034;-63
2023/08/09 12:17:24;;;;;;;4.03;3.53;;;666.50;1587.20;;;;;;4990264;28;20469;-64